Time;durP1;ratioP1;P1;durP2;ratioP2;P2;SDS_P1;SDS_P2;PMS_P1;PMS_P2;Temp;Humidity;BMP_temperature;BMP_pressure;BME280_temperature;BME280_humidity;BME280_pressure;Samples;Min_cycle;Max_cycle;Signal;HPM_P1;HPM_P2
2021/06/20 00:00:39;;;;;;;12.07;8.50;;;;;;;15.20;100.00;100961.04;1910952;73;39612;-80
2021/06/20 00:08:52;;;;;;;14.57;9.47;;;;;;;15.27;100.00;100967.89;1855881;76;86732;-80
2021/06/20 00:11:23;;;;;;;16.20;8.80;;;;;;;15.09;100.00;100964.65;1814000;77;936517;-79
2021/06/20 00:13:53;;;;;;;13.97;9.03;;;;;;;15.11;100.00;100960.95;1812716;78;938613;-79
2021/06/20 00:16:24;;;;;;;14.58;8.38;;;;;;;15.19;100.00;100963.61;1812919;77;938706;-79
2021/06/20 00:18:54;;;;;;;12.43;7.97;;;;;;;15.15;100.00;100966.74;1810211;77;937435;-79
2021/06/20 00:21:25;;;;;;;13.77;8.53;;;;;;;15.24;100.00;100966.27;1798397;78;938650;-78
2021/06/20 00:23:56;;;;;;;16.03;8.97;;;;;;;15.23;100.00;100950.64;1810444;78;938606;-79
2021/06/20 00:26:26;;;;;;;12.88;8.50;;;;;;;15.18;100.00;100950.19;1798595;78;938734;-79
2021/06/20 00:28:56;;;;;;;12.80;8.93;;;;;;;15.17;100.00;100944.32;1810288;77;938591;-79
2021/06/20 00:31:26;;;;;;;10.63;8.10;;;;;;;15.20;100.00;100953.48;1798501;77;938613;-78
2021/06/20 00:36:50;;;;;;;12.10;8.03;;;;;;;15.27;100.00;100944.10;1877434;76;86391;-75
2021/06/20 00:42:15;;;;;;;12.60;8.37;;;;;;;15.18;100.00;100943.75;1921428;73;39644;-80
2021/06/20 00:47:40;;;;;;;9.40;7.30;;;;;;;15.16;100.00;100945.45;1911411;73;40301;-82
2021/06/20 00:53:11;;;;;;;9.50;7.73;;;;;;;15.20;100.00;100938.66;1887622;74;86211;-80
2021/06/20 00:58:34;;;;;;;12.17;7.27;;;;;;;15.18;100.00;100933.39;1932560;72;39941;-81
2021/06/20 01:04:00;;;;;;;11.80;7.50;;;;;;;15.12;100.00;100930.44;1860441;76;86059;-82
2021/06/20 01:09:25;;;;;;;13.00;8.57;;;;;;;15.16;100.00;100927.27;1935119;73;39617;-82
2021/06/20 01:14:51;;;;;;;13.03;8.27;;;;;;;15.13;100.00;100920.91;1876866;75;85692;-80
2021/06/20 01:20:19;;;;;;;13.07;7.70;;;;;;;15.10;100.00;100915.95;1948286;73;39485;-83
2021/06/20 01:25:45;;;;;;;11.60;7.77;;;;;;;15.14;100.00;100909.98;1876821;75;86270;-80
2021/06/20 01:31:12;;;;;;;12.80;8.30;;;;;;;15.07;100.00;100903.14;1925745;73;39463;-80
2021/06/20 01:36:37;;;;;;;11.63;7.90;;;;;;;15.10;100.00;100892.17;1943415;73;39546;-80
2021/06/20 01:42:03;;;;;;;10.53;8.00;;;;;;;15.02;100.00;100895.11;1782200;78;86321;-75
2021/06/20 01:47:30;;;;;;;12.60;7.93;;;;;;;14.94;100.00;100890.83;1944996;73;39499;-80
2021/06/20 01:53:05;;;;;;;10.43;7.90;;;;;;;14.88;100.00;100865.53;1839747;76;86438;-80
2021/06/20 01:58:28;;;;;;;13.10;8.17;;;;;;;15.08;100.00;100876.25;1916485;73;39693;-75
2021/06/20 02:03:53;;;;;;;11.73;8.80;;;;;;;15.04;100.00;100865.44;1836966;77;85895;-80
2021/06/20 02:09:17;;;;;;;12.00;8.40;;;;;;;15.02;100.00;100848.13;1947445;73;39794;-77
2021/06/20 02:14:42;;;;;;;12.93;8.07;;;;;;;14.97;100.00;100835.08;1910972;73;39629;-83
2021/06/20 02:20:16;;;;;;;13.03;8.60;;;;;;;14.98;100.00;100841.51;1924774;73;39449;-82
2021/06/20 02:25:41;;;;;;;14.87;9.13;;;;;;;14.95;100.00;100848.57;1942779;73;39400;-81
2021/06/20 02:31:06;;;;;;;13.33;8.43;;;;;;;14.96;100.00;100845.20;1787956;78;86447;-75
2021/06/20 02:36:31;;;;;;;12.87;8.17;;;;;;;14.95;100.00;100846.34;1930089;72;40400;-83
2021/06/20 02:41:55;;;;;;;13.67;8.73;;;;;;;14.88;100.00;100845.39;1837201;77;86523;-75
2021/06/20 02:47:20;;;;;;;11.07;7.13;;;;;;;14.92;100.00;100843.62;1884304;73;39586;-82
2021/06/20 02:52:43;;;;;;;13.27;8.50;;;;;;;14.98;100.00;100846.53;1876749;75;86347;-80
2021/06/20 02:58:07;;;;;;;11.43;9.13;;;;;;;15.01;100.00;100845.09;1824915;76;86298;-81
2021/06/20 03:03:33;;;;;;;11.13;7.10;;;;;;;14.95;100.00;100851.94;1944223;73;39730;-81
2021/06/20 03:08:57;;;;;;;11.83;7.77;;;;;;;14.96;100.00;100850.23;1837320;77;85703;-81
2021/06/20 03:14:21;;;;;;;11.73;7.80;;;;;;;14.93;100.00;100849.44;1918992;73;39525;-80
2021/06/20 03:19:47;;;;;;;8.70;7.27;;;;;;;15.01;100.00;100859.09;1877047;75;85473;-75
2021/06/20 03:25:14;;;;;;;10.70;8.10;;;;;;;14.96;100.00;100857.80;1924658;73;39580;-75
2021/06/20 03:30:38;;;;;;;8.50;7.60;;;;;;;14.93;100.00;100850.05;1943584;72;39462;-82
2021/06/20 03:36:03;;;;;;;11.27;7.33;;;;;;;14.98;100.00;100850.73;1861691;76;86626;-80
2021/06/20 03:41:27;;;;;;;9.13;7.10;;;;;;;14.97;100.00;100850.47;1917178;73;39684;-80
2021/06/20 03:46:52;;;;;;;9.10;7.90;;;;;;;15.03;100.00;100852.59;1855582;75;86441;-82
2021/06/20 03:52:15;;;;;;;12.70;7.53;;;;;;;14.92;100.00;100854.80;1905828;73;39692;-80
2021/06/20 03:57:38;;;;;;;10.87;7.37;;;;;;;14.93;100.00;100852.23;1943676;72;39485;-82
2021/06/20 04:03:06;;;;;;;12.13;7.93;;;;;;;14.95;100.00;100853.34;1838113;77;86592;-75
2021/06/20 04:08:31;;;;;;;10.87;8.20;;;;;;;14.91;100.00;100860.70;1944695;73;39495;-81
2021/06/20 04:13:55;;;;;;;10.33;7.37;;;;;;;14.96;100.00;100853.03;1783768;80;86632;-75
2021/06/20 04:19:22;;;;;;;11.10;8.50;;;;;;;14.97;100.00;100862.25;1946311;73;39927;-80
2021/06/20 04:24:47;;;;;;;11.27;8.07;;;;;;;14.97;100.00;100860.26;1892000;74;86490;-82
2021/06/20 04:30:14;;;;;;;9.83;7.57;;;;;;;14.91;100.00;100853.14;1949288;73;39644;-82
2021/06/20 04:35:40;;;;;;;9.90;8.10;;;;;;;14.98;100.00;100849.91;1911422;73;39748;-80
2021/06/20 04:41:06;;;;;;;12.17;7.93;;;;;;;15.03;100.00;100845.59;1838159;77;86320;-75
2021/06/20 04:46:33;;;;;;;13.17;7.77;;;;;;;14.99;100.00;100859.95;1955460;72;39563;-82
2021/06/20 04:51:57;;;;;;;9.97;8.00;;;;;;;14.99;100.00;100852.39;1882538;75;86557;-75
2021/06/20 04:57:23;;;;;;;10.60;7.77;;;;;;;14.96;100.00;100848.01;1946665;73;39666;-75
2021/06/20 05:02:49;;;;;;;8.90;6.83;;;;;;;15.00;100.00;100855.45;1876935;75;86723;-75
2021/06/20 05:08:14;;;;;;;9.77;7.43;;;;;;;15.04;100.00;100853.69;1907072;73;39406;-76
2021/06/20 05:13:39;;;;;;;8.77;6.83;;;;;;;15.01;100.00;100864.67;1925663;72;39531;-81
2021/06/20 05:19:03;;;;;;;9.37;6.67;;;;;;;15.00;100.00;100857.42;1942832;70;86747;-80
2021/06/20 05:24:31;;;;;;;9.13;7.30;;;;;;;14.97;100.00;100858.86;1945472;73;39492;-80
2021/06/20 05:29:56;;;;;;;9.47;7.37;;;;;;;15.00;100.00;100872.80;1837240;77;86489;-80
2021/06/20 05:35:21;;;;;;;11.17;7.80;;;;;;;15.04;100.00;100873.27;1919781;73;39703;-80
2021/06/20 05:40:45;;;;;;;8.20;7.40;;;;;;;15.02;100.00;100862.11;1876824;75;86505;-81
2021/06/20 05:46:10;;;;;;;10.30;8.20;;;;;;;15.08;100.00;100858.07;1844729;76;86642;-75
2021/06/20 05:51:33;;;;;;;13.70;8.63;;;;;;;14.99;100.00;100860.78;1944550;73;39648;-82
2021/06/20 05:56:57;;;;;;;11.37;9.00;;;;;;;15.08;100.00;100865.06;1837324;77;86592;-81
2021/06/20 06:02:21;;;;;;;10.07;8.17;;;;;;;15.10;100.00;100848.80;1946650;73;39532;-75
2021/06/20 06:07:45;;;;;;;10.40;8.17;;;;;;;15.19;100.00;100845.48;1876993;75;86705;-75
2021/06/20 06:13:13;;;;;;;12.13;8.77;;;;;;;15.30;100.00;100845.52;1867071;75;86433;-81
2021/06/20 06:18:37;;;;;;;9.87;8.13;;;;;;;15.28;100.00;100851.16;1943630;73;39572;-82
2021/06/20 06:24:01;;;;;;;9.90;8.90;;;;;;;15.28;100.00;100853.38;1863321;77;85461;-75
2021/06/20 06:29:26;;;;;;;12.03;9.73;;;;;;;15.18;100.00;100862.61;1920842;72;39550;-82
2021/06/20 06:34:50;;;;;;;11.43;8.00;;;;;;;15.19;100.00;100853.08;1877041;75;84944;-75
2021/06/20 06:40:16;;;;;;;9.07;8.07;;;;;;;15.21;100.00;100838.18;1923762;73;39490;-75
2021/06/20 06:45:40;;;;;;;8.80;7.90;;;;;;;15.26;100.00;100846.46;1946081;72;39609;-82
2021/06/20 06:51:04;;;;;;;9.83;8.07;;;;;;;15.37;100.00;100856.25;1785000;79;86246;-80
2021/06/20 06:56:28;;;;;;;10.47;7.63;;;;;;;15.53;100.00;100874.95;1932406;72;39544;-82
2021/06/20 07:01:53;;;;;;;10.30;7.83;;;;;;;15.54;100.00;100884.98;1832081;78;86464;-79
2021/06/20 07:07:18;;;;;;;7.83;6.93;;;;;;;15.43;100.00;100877.39;1921771;73;39413;-77
2021/06/20 07:12:42;;;;;;;9.73;7.73;;;;;;;15.58;100.00;100882.63;1942661;73;39535;-75
2021/06/20 07:18:12;;;;;;;11.33;8.40;;;;;;;15.66;100.00;100894.47;1949237;73;39750;-84
2021/06/20 07:23:36;;;;;;;9.50;8.40;;;;;;;15.61;100.00;100899.39;1932076;72;45376;-84
2021/06/20 07:29:02;;;;;;;10.67;7.57;;;;;;;15.62;100.00;100896.82;1798821;78;86099;-75
2021/06/20 07:34:29;;;;;;;9.87;8.57;;;;;;;15.59;100.00;100896.89;1942215;73;42324;-81
2021/06/20 07:39:54;;;;;;;10.10;8.80;;;;;;;15.65;100.00;100901.23;1867294;75;86557;-81
2021/06/20 07:48:08;;;;;;;9.70;8.70;;;;;;;15.72;100.00;100907.20;1965691;70;39556;-81
2021/06/20 07:50:38;;;;;;;10.73;9.00;;;;;;;15.62;100.00;100910.25;1832679;76;934514;-81
2021/06/20 07:56:03;;;;;;;12.67;9.20;;;;;;;15.82;100.00;100913.13;1777098;80;86379;-81
2021/06/20 08:01:29;;;;;;;10.40;8.37;;;;;;;15.67;100.00;100927.50;1931037;72;39619;-81
2021/06/20 08:06:54;;;;;;;10.00;8.80;;;;;;;15.72;100.00;100926.81;1837032;77;86543;-81
2021/06/20 08:12:18;;;;;;;10.90;9.50;;;;;;;15.64;100.00;100941.58;1921373;73;39431;-75
2021/06/20 08:17:44;;;;;;;11.63;9.50;;;;;;;15.70;100.00;100936.09;1881273;75;86753;-81
2021/06/20 08:23:10;;;;;;;10.93;8.90;;;;;;;15.75;100.00;100940.17;1881560;75;85613;-75
2021/06/20 08:28:37;;;;;;;10.60;9.50;;;;;;;15.79;100.00;100937.55;1913204;73;39582;-81
2021/06/20 08:34:06;;;;;;;13.27;9.63;;;;;;;15.75;100.00;100945.77;1862015;76;86283;-75
2021/06/20 08:39:34;;;;;;;10.57;9.13;;;;;;;15.76;100.00;100946.60;1944122;73;40131;-81
2021/06/20 08:44:59;;;;;;;12.50;9.40;;;;;;;15.71;100.00;100940.55;1847452;76;85345;-81
2021/06/20 08:50:24;;;;;;;14.80;10.30;;;;;;;15.76;100.00;100956.41;1946180;73;39502;-75
2021/06/20 08:55:51;;;;;;;11.40;9.27;;;;;;;15.73;100.00;100953.68;1876873;75;86516;-84
2021/06/20 09:01:19;;;;;;;12.40;9.63;;;;;;;15.69;100.00;100954.63;1947042;72;39627;-76
2021/06/20 09:06:50;;;;;;;10.50;9.47;;;;;;;15.65;100.00;100955.01;1891814;74;85614;-75
2021/06/20 09:12:21;;;;;;;11.00;9.03;;;;;;;15.63;100.00;100958.69;1919372;73;39740;-82
2021/06/20 09:17:55;;;;;;;12.40;10.03;;;;;;;15.67;100.00;100951.30;1881894;75;86223;-81
2021/06/20 09:23:33;;;;;;;12.30;11.00;;;;;;;15.72;100.00;100942.22;1915482;73;39645;-79
2021/06/20 09:28:58;;;;;;;13.47;11.57;;;;;;;15.73;100.00;100938.84;1882560;75;85718;-81
2021/06/20 09:34:22;;;;;;;12.33;11.10;;;;;;;15.71;100.00;100938.32;1934452;72;39597;-75
2021/06/20 09:39:56;;;;;;;15.77;11.40;;;;;;;15.98;100.00;100938.20;1837277;77;86322;-75
2021/06/20 09:45:34;;;;;;;13.73;11.23;;;;;;;16.10;100.00;100944.05;1946353;73;39457;-80
2021/06/20 09:51:00;;;;;;;15.20;12.23;;;;;;;16.36;100.00;100928.78;1837565;77;86322;-75
2021/06/20 09:56:33;;;;;;;15.30;13.40;;;;;;;16.93;100.00;100924.10;1915352;73;39677;-82
2021/06/20 10:02:16;;;;;;;13.63;10.50;;;;;;;17.01;100.00;100930.88;1951119;71;86708;-81
2021/06/20 10:07:41;;;;;;;11.13;9.77;;;;;;;17.00;100.00;100931.45;1909392;73;40230;-75
2021/06/20 10:13:10;;;;;;;10.37;9.37;;;;;;;17.22;100.00;100922.09;1868270;75;86380;-81
2021/06/20 10:18:36;;;;;;;9.93;8.93;;;;;;;16.98;100.00;100929.57;1913783;73;39661;-76
2021/06/20 10:24:10;;;;;;;10.00;8.17;;;;;;;17.14;100.00;100946.20;1951483;71;85917;-82
2021/06/20 10:29:39;;;;;;;7.93;6.73;;;;;;;17.08;100.00;100937.66;1943789;73;39555;-75
2021/06/20 10:35:18;;;;;;;7.43;6.33;;;;;;;17.04;100.00;100945.08;1948481;73;39410;-81
2021/06/20 10:40:44;;;;;;;8.53;6.63;;;;;;;17.37;100.00;100934.84;1876851;75;86217;-81
2021/06/20 10:46:16;;;;;;;7.00;5.97;;;;;;;17.57;100.00;100935.59;1954208;72;39598;-73
2021/06/20 10:51:39;;;;;;;6.83;6.13;;;;;;;17.46;100.00;100931.44;1943348;73;39433;-81
2021/06/20 10:57:04;;;;;;;7.33;6.20;;;;;;;17.53;100.00;100924.77;1954429;70;86032;-81
2021/06/20 11:02:35;;;;;;;6.93;6.17;;;;;;;17.43;100.00;100921.70;1915960;73;39907;-75
2021/06/20 11:08:11;;;;;;;8.43;6.90;;;;;;;17.35;100.00;100917.48;1764072;79;86647;-75
2021/06/20 11:13:40;;;;;;;6.40;5.80;;;;;;;17.63;100.00;100907.59;1931108;72;39564;-78
2021/06/20 11:19:10;;;;;;;6.83;6.23;;;;;;;17.81;100.00;100910.64;1882440;75;85315;-80
2021/06/20 11:24:39;;;;;;;7.40;6.70;;;;;;;18.12;100.00;100904.81;1913532;72;39526;-81
2021/06/20 11:30:09;;;;;;;6.27;5.67;;;;;;;17.86;100.00;100897.84;1833078;78;86297;-81
2021/06/20 11:35:34;;;;;;;7.27;6.10;;;;;;;17.89;100.00;100883.11;1897364;73;39598;-80
2021/06/20 11:41:10;;;;;;;5.90;5.30;;;;;;;18.03;100.00;100884.33;1837583;77;86942;-75
2021/06/20 11:46:48;;;;;;;7.43;6.77;;;;;;;18.03;100.00;100881.52;1891716;75;86499;-81
2021/06/20 11:52:15;;;;;;;7.23;6.53;;;;;;;18.09;100.00;100883.00;1924171;73;39480;-74
2021/06/20 11:57:39;;;;;;;6.97;6.23;;;;;;;18.14;100.00;100883.63;1911688;73;39506;-73
2021/06/20 12:03:11;;;;;;;7.23;6.50;;;;;;;18.49;100.00;100873.08;1882397;75;86664;-81
2021/06/20 12:09:01;;;;;;;6.07;5.53;;;;;;;18.69;100.00;100871.55;1904524;74;86339;-82
2021/06/20 12:14:28;;;;;;;5.57;5.13;;;;;;;18.68;100.00;100867.07;1945932;73;39619;-81
2021/06/20 12:19:54;;;;;;;6.20;5.70;;;;;;;18.69;100.00;100872.12;1837017;77;86222;-81
2021/06/20 12:25:18;;;;;;;6.73;5.23;;;;;;;18.88;100.00;100871.08;1947574;73;39560;-81
2021/06/20 12:30:43;;;;;;;7.87;6.47;;;;;;;19.06;100.00;100878.26;1915917;73;39511;-83
2021/06/20 12:36:12;;;;;;;6.00;5.50;;;;;;;18.75;100.00;100870.74;1925069;73;39759;-81
2021/06/20 12:41:36;;;;;;;5.60;5.10;;;;;;;18.50;100.00;100873.91;1912283;73;39610;-76
2021/06/20 12:47:05;;;;;;;6.10;5.43;;;;;;;18.55;100.00;100883.59;1932126;71;86435;-81
2021/06/20 12:52:32;;;;;;;5.77;5.27;;;;;;;18.50;100.00;100887.39;1945127;73;39446;-82
2021/06/20 12:57:57;;;;;;;5.80;5.23;;;;;;;18.42;100.00;100884.62;1845640;76;86577;-81
2021/06/20 13:03:42;;;;;;;5.13;4.73;;;;;;;18.38;100.00;100887.28;1946068;72;86670;-74
2021/06/20 13:09:09;;;;;;;6.03;5.53;;;;;;;18.25;100.00;100892.53;1782740;79;86601;-81
2021/06/20 13:14:35;;;;;;;5.23;4.83;;;;;;;18.22;100.00;100889.58;1944364;73;39531;-81
2021/06/20 13:20:09;;;;;;;5.87;5.37;;;;;;;18.14;100.00;100897.68;1798776;79;86369;-79
2021/06/20 13:25:34;;;;;;;6.13;5.30;;;;;;;18.14;100.00;100905.31;1944256;73;39661;-80
2021/06/20 13:30:59;;;;;;;5.57;5.17;;;;;;;18.09;100.00;100906.32;1860367;76;85641;-79
2021/06/20 13:36:25;;;;;;;5.87;5.37;;;;;;;18.29;100.00;100897.73;1946295;73;39567;-76
2021/06/20 13:41:50;;;;;;;6.40;5.80;;;;;;;18.40;100.00;100893.98;1876997;75;86146;-78
2021/06/20 13:47:14;;;;;;;6.80;6.07;;;;;;;18.31;100.00;100905.84;1948646;73;39488;-81
2021/06/20 13:52:40;;;;;;;7.40;6.60;;;;;;;18.47;100.00;100890.89;1943087;73;39407;-80
2021/06/20 13:58:05;;;;;;;6.43;5.87;;;;;;;18.68;100.00;100886.77;1838122;77;86381;-76
2021/06/20 14:03:30;;;;;;;10.33;9.33;;;;;;;18.75;100.00;100887.63;1918322;72;39503;-82
2021/06/20 14:08:54;;;;;;;10.60;9.60;;;;;;;18.88;100.00;100883.75;1837347;77;86352;-74
2021/06/20 14:14:17;;;;;;;9.90;9.00;;;;;;;19.18;100.00;100878.91;1904800;73;39569;-81
2021/06/20 14:19:41;;;;;;;10.30;9.20;;;;;;;19.43;100.00;100872.28;1908687;72;39526;-76
2021/06/20 14:25:08;;;;;;;9.23;8.33;;;;;;;19.53;100.00;100874.70;1850163;76;86313;-76
2021/06/20 14:30:33;;;;;;;9.23;8.00;;;;;;;19.50;100.00;100857.91;1914640;73;39491;-80
2021/06/20 14:35:58;;;;;;;8.93;8.10;;;;;;;19.48;100.00;100864.45;1837511;77;85864;-80
2021/06/20 14:41:25;;;;;;;9.07;7.97;;;;;;;19.19;100.00;100865.91;1946695;73;39678;-75
2021/06/20 14:46:49;;;;;;;9.10;8.20;;;;;;;19.07;100.00;100859.63;1876892;75;86553;-80
2021/06/20 14:52:13;;;;;;;8.30;7.57;;;;;;;18.77;100.00;100855.19;1929136;72;39518;-80
2021/06/20 14:57:36;;;;;;;8.43;7.63;;;;;;;18.79;100.00;100848.62;1911561;73;39477;-73
2021/06/20 15:03:05;;;;;;;8.60;7.50;;;;;;;18.80;100.00;100839.02;1882525;75;86522;-80
2021/06/20 15:08:29;;;;;;;8.30;7.07;;;;;;;18.67;100.00;100840.67;1945228;73;39414;-73
2021/06/20 15:13:54;;;;;;;7.47;6.77;;;;;;;18.77;100.00;100843.11;1868670;76;86463;-73
2021/06/20 15:19:18;;;;;;;7.40;6.53;;;;;;;18.79;100.00;100847.80;1947574;73;40051;-76
2021/06/20 15:24:43;;;;;;;7.73;6.60;;;;;;;18.78;100.00;100848.41;1876835;75;86108;-80
2021/06/20 15:30:12;;;;;;;6.87;5.57;;;;;;;18.84;100.00;100841.39;1838254;77;85736;-81
2021/06/20 15:35:51;;;;;;;7.87;5.60;;;;;;;19.05;100.00;100850.69;1877354;75;86334;-75
2021/06/20 15:41:17;;;;;;;6.50;5.90;;;;;;;19.05;100.00;100850.69;1948359;73;39472;-82
2021/06/20 15:46:41;;;;;;;7.53;5.83;;;;;;;19.03;100.00;100850.22;1954897;73;40193;-79
2021/06/20 15:52:04;;;;;;;6.43;5.80;;;;;;;19.14;100.00;100842.75;1808830;78;86557;-75
2021/06/20 15:57:32;;;;;;;4.90;4.50;;;;;;;19.37;100.00;100832.22;1914444;72;39515;-80
2021/06/20 16:02:58;;;;;;;6.07;5.47;;;;;;;19.57;100.00;100831.97;1837320;77;86226;-80
2021/06/20 16:08:24;;;;;;;5.67;5.17;;;;;;;19.50;100.00;100821.86;1918220;72;39437;-80
2021/06/20 16:13:48;;;;;;;5.77;4.83;;;;;;;19.35;100.00;100823.86;1892433;74;86705;-75
2021/06/20 16:19:17;;;;;;;5.83;4.90;;;;;;;19.35;100.00;100821.04;1928807;72;39897;-80
2021/06/20 16:24:41;;;;;;;5.23;4.73;;;;;;;19.37;100.00;100820.95;1908788;73;39808;-80
2021/06/20 16:30:09;;;;;;;5.83;4.57;;;;;;;19.33;100.00;100815.77;1832972;78;86506;-80
2021/06/20 16:35:33;;;;;;;5.37;4.83;;;;;;;19.31;100.00;100822.90;1913361;72;39687;-76
2021/06/20 16:40:58;;;;;;;5.53;4.80;;;;;;;19.33;100.00;100824.80;1868595;76;85609;-73
2021/06/20 16:46:22;;;;;;;5.50;5.00;;;;;;;19.26;100.00;100818.30;1919547;73;39791;-81
2021/06/20 16:51:48;;;;;;;5.70;5.20;;;;;;;19.30;100.00;100809.98;1892120;74;85580;-78
2021/06/20 16:57:12;;;;;;;5.43;4.67;;;;;;;19.22;100.00;100809.47;1925427;73;39449;-83
2021/06/20 17:02:38;;;;;;;5.00;4.50;;;;;;;19.38;100.00;100810.52;1931735;73;74092;-80
2021/06/20 17:08:06;;;;;;;4.63;4.23;;;;;;;19.24;100.00;100810.80;1867162;75;86340;-75
2021/06/20 17:13:34;;;;;;;5.00;4.50;;;;;;;19.24;100.00;100819.24;1944174;73;40231;-80
2021/06/20 17:18:58;;;;;;;4.90;4.50;;;;;;;19.21;100.00;100821.92;1837332;77;86195;-80
2021/06/20 17:24:23;;;;;;;3.70;3.40;;;;;;;19.06;100.00;100830.40;1918966;73;39517;-73
2021/06/20 17:29:48;;;;;;;4.50;4.10;;;;;;;18.99;100.00;100837.16;1876924;75;86300;-75
2021/06/20 17:35:14;;;;;;;4.17;3.83;;;;;;;18.99;100.00;100847.84;1948943;73;39400;-82
2021/06/20 17:40:49;;;;;;;4.20;3.80;;;;;;;18.88;100.00;100854.20;1901420;75;86388;-79
2021/06/20 17:46:15;;;;;;;4.10;3.77;;;;;;;18.72;100.00;100861.58;1948594;73;39509;-80
2021/06/20 17:51:39;;;;;;;4.20;3.30;;;;;;;18.61;100.00;100871.80;1893930;73;39779;-82
2021/06/20 17:57:03;;;;;;;4.57;3.27;;;;;;;18.54;100.00;100870.69;1763811;79;86668;-80
2021/06/20 18:02:30;;;;;;;3.77;3.40;;;;;;;19.01;100.00;100865.20;1917106;73;39600;-73
2021/06/20 18:07:55;;;;;;;3.50;3.20;;;;;;;19.12;100.00;100868.45;1882703;75;86351;-73
2021/06/20 18:13:23;;;;;;;3.40;3.10;;;;;;;18.71;100.00;100879.05;1920904;72;39771;-74
2021/06/20 18:18:48;;;;;;;5.00;3.60;;;;;;;18.64;100.00;100873.13;1882111;75;86349;-81
2021/06/20 18:24:15;;;;;;;4.10;3.37;;;;;;;18.61;100.00;100872.42;1938485;72;39446;-72
2021/06/20 18:29:46;;;;;;;3.63;3.33;;;;;;;18.60;100.00;100887.06;1881560;75;86472;-79
2021/06/20 18:35:12;;;;;;;4.33;3.83;;;;;;;18.53;100.00;100893.77;1940282;72;39611;-80
2021/06/20 18:40:39;;;;;;;4.30;3.90;;;;;;;18.39;100.00;100899.36;1943409;73;39477;-77
2021/06/20 18:46:05;;;;;;;3.93;3.53;;;;;;;18.43;100.00;100891.90;1860915;76;86480;-79
2021/06/20 18:51:30;;;;;;;3.83;3.53;;;;;;;18.17;100.00;100903.23;1931821;72;39520;-77
2021/06/20 18:56:55;;;;;;;3.70;3.40;;;;;;;18.18;100.00;100907.70;1890416;75;85658;-79
2021/06/20 19:02:23;;;;;;;3.10;2.83;;;;;;;18.13;100.00;100910.11;1947161;73;39566;-74
2021/06/20 19:07:48;;;;;;;3.30;3.00;;;;;;;18.04;100.00;100917.73;1788164;78;86619;-80
2021/06/20 19:13:14;;;;;;;3.00;2.80;;;;;;;17.99;100.00;100924.93;1924149;73;39519;-76
2021/06/20 19:18:38;;;;;;;2.50;2.27;;;;;;;17.90;100.00;100928.33;1931373;72;39504;-78
2021/06/20 19:24:03;;;;;;;3.20;2.53;;;;;;;17.85;100.00;100929.90;1838088;77;85806;-71
2021/06/20 19:29:27;;;;;;;2.80;2.37;;;;;;;17.74;100.00;100936.45;1916655;73;39414;-75
2021/06/20 19:34:52;;;;;;;2.47;2.27;;;;;;;17.67;100.00;100933.90;1882804;75;86344;-70
2021/06/20 19:40:19;;;;;;;3.03;2.73;;;;;;;17.65;100.00;100929.17;1948391;73;39531;-77
2021/06/20 19:45:46;;;;;;;2.87;2.67;;;;;;;17.57;100.00;100944.84;1880625;75;86684;-72
2021/06/20 19:51:30;;;;;;;4.80;3.13;;;;;;;17.55;100.00;100940.70;1875540;75;86783;-72
2021/06/20 19:56:55;;;;;;;2.90;2.70;;;;;;;17.48;100.00;100939.80;1877741;76;85540;-72
2021/06/20 20:02:20;;;;;;;3.90;3.07;;;;;;;17.48;100.00;100935.59;1920392;73;39693;-76
2021/06/20 20:07:47;;;;;;;3.03;2.80;;;;;;;17.35;100.00;100930.95;1882030;75;85455;-78
2021/06/20 20:13:14;;;;;;;3.40;2.83;;;;;;;17.39;100.00;100927.73;1906478;73;39586;-71
2021/06/20 20:18:42;;;;;;;4.10;3.70;;;;;;;17.36;100.00;100935.41;1983779;69;39613;-77
2021/06/20 20:24:08;;;;;;;3.90;3.50;;;;;;;17.27;100.00;100938.22;1777064;80;86679;-78
2021/06/20 20:29:32;;;;;;;4.00;3.60;;;;;;;17.24;100.00;100929.02;1929424;72;39520;-79
2021/06/20 20:34:58;;;;;;;3.20;2.90;;;;;;;17.21;100.00;100950.73;1832492;78;86505;-70
2021/06/20 20:40:26;;;;;;;3.90;3.50;;;;;;;17.18;100.00;100961.23;1899218;73;39413;-72
2021/06/20 20:45:52;;;;;;;3.83;3.50;;;;;;;17.13;100.00;100970.37;1831947;78;86267;-78
2021/06/20 20:51:16;;;;;;;4.50;3.70;;;;;;;17.06;100.00;100972.84;1948292;73;39410;-78
2021/06/20 20:56:39;;;;;;;5.43;4.40;;;;;;;16.98;100.00;100984.30;1943437;73;39659;-78
2021/06/20 21:02:04;;;;;;;5.80;5.10;;;;;;;16.92;100.00;100994.00;1782109;78;85814;-78
2021/06/20 21:07:28;;;;;;;8.33;7.43;;;;;;;16.88;100.00;100993.56;1943477;72;39620;-70
2021/06/20 21:15:23;;;;;;;10.67;8.37;;;;;;;16.71;100.00;101004.13;2000588;69;39855;-71
2021/06/20 21:17:54;;;;;;;13.23;8.90;;;;;;;16.71;100.00;101004.13;1926350;73;936632;-72
2021/06/20 21:20:24;;;;;;;11.15;9.90;;;;;;;16.72;100.00;101010.00;1871516;73;938776;-71
2021/06/20 21:23:01;;;;;;;12.13;10.33;;;;;;;16.70;100.00;101008.91;1909832;73;938697;-71
2021/06/20 21:25:29;;;;;;;12.63;9.70;;;;;;;16.62;100.00;101007.47;1907553;73;940800;-69
2021/06/20 21:27:59;;;;;;;13.20;10.53;;;;;;;16.60;100.00;101021.00;1854976;76;937858;-70
2021/06/20 21:30:30;;;;;;;12.63;9.90;;;;;;;16.54;100.00;101002.61;1866404;75;939519;-70
2021/06/20 21:33:00;;;;;;;16.50;10.83;;;;;;;16.66;100.00;101015.48;1871928;74;937633;-75
2021/06/20 21:35:30;;;;;;;13.53;10.70;;;;;;;16.66;100.00;101011.28;1840570;76;940931;-79
2021/06/20 21:38:00;;;;;;;13.57;10.83;;;;;;;16.55;100.00;101016.89;1871580;76;940942;-70
2021/06/20 21:43:31;;;;;;;15.10;10.50;;;;;;;16.52;100.00;100996.48;1945904;73;39767;-72
2021/06/20 21:48:59;;;;;;;12.33;9.77;;;;;;;16.56;100.00;101003.93;1857521;75;86890;-81
2021/06/20 21:57:21;;;;;;;15.00;9.50;;;;;;;16.45;100.00;101015.75;1926583;72;39381;-73
2021/06/20 21:59:57;;;;;;;11.03;8.43;;;;;;;16.45;100.00;101015.75;1835865;75;936730;-73
2021/06/20 22:02:36;;;;;;;12.33;9.70;;;;;;;16.47;100.00;101021.88;1794720;78;938629;-74
2021/06/20 22:05:09;;;;;;;11.63;9.80;;;;;;;16.45;100.00;101013.77;1835674;75;936856;-81
2021/06/20 22:07:42;;;;;;;10.00;9.00;;;;;;;16.46;100.00;101011.80;1823401;75;938729;-81
2021/06/20 22:10:17;;;;;;;12.40;9.53;;;;;;;16.48;100.00;101010.32;1835865;75;936874;-81
2021/06/20 22:12:48;;;;;;;10.30;8.77;;;;;;;16.48;100.00;101022.11;1806389;78;938736;-73
2021/06/20 22:15:20;;;;;;;11.30;8.83;;;;;;;16.40;100.00;101014.73;1829236;76;938847;-74
2021/06/20 22:20:46;;;;;;;10.73;8.23;;;;;;;16.42;100.00;101005.19;1877197;75;86164;-71
2021/06/20 22:28:59;;;;;;;11.23;8.77;;;;;;;16.37;100.00;100988.75;1857897;76;86555;-81
2021/06/20 22:31:33;;;;;;;11.55;8.23;;;;;;;16.45;100.00;100991.91;1802646;77;936667;-73
2021/06/20 22:37:00;;;;;;;11.40;8.17;;;;;;;16.29;100.00;100988.12;1776982;79;86469;-74
2021/06/20 22:42:26;;;;;;;10.57;7.97;;;;;;;16.16;100.00;100973.61;1945839;73;39621;-78
2021/06/20 22:47:50;;;;;;;10.57;7.60;;;;;;;16.20;100.00;100984.44;1892448;74;85977;-78
2021/06/20 22:53:14;;;;;;;12.77;8.07;;;;;;;16.24;100.00;100969.20;1924051;72;39842;-73
2021/06/20 22:58:38;;;;;;;10.70;7.60;;;;;;;16.19;100.00;100970.16;1943370;72;39669;-81
2021/06/20 23:04:03;;;;;;;8.20;6.40;;;;;;;16.11;100.00;100963.09;1866929;75;85646;-73
2021/06/20 23:09:30;;;;;;;10.17;6.50;;;;;;;16.07;100.00;100949.47;1914728;73;39780;-79
2021/06/20 23:14:54;;;;;;;7.20;6.53;;;;;;;16.02;100.00;100951.83;1837084;77;86446;-79
2021/06/20 23:20:21;;;;;;;7.70;5.93;;;;;;;16.06;100.00;100951.45;1947391;73;39628;-73
2021/06/20 23:25:46;;;;;;;6.87;5.50;;;;;;;16.02;100.00;100960.23;1878260;75;86436;-73
2021/06/20 23:31:13;;;;;;;7.33;5.23;;;;;;;15.94;100.00;100961.00;1948757;73;39943;-79
2021/06/20 23:36:37;;;;;;;8.87;5.43;;;;;;;15.98;100.00;100972.39;1943791;73;39508;-73
2021/06/20 23:42:21;;;;;;;6.53;4.87;;;;;;;15.97;100.00;100972.97;1924859;72;86577;-80